Time;durP1;ratioP1;P1;durP2;ratioP2;P2;SDS_P1;SDS_P2;PMS_P1;PMS_P2;Temp;Humidity;BMP_temperature;BMP_pressure;BME280_temperature;BME280_humidity;BME280_pressure;Samples;Min_cycle;Max_cycle;Signal;HPM_P1;HPM_P2
2022/01/08 00:02:15;;;;;;;27.73;14.23;;;;;;;1.82;100.00;100585.31;6288792;22;20008;-86
2022/01/08 00:04:44;;;;;;;31.55;15.15;;;;;;;1.94;100.00;100581.00;6288446;22;20008;-86
2022/01/08 00:07:10;;;;;;;27.98;15.68;;;;;;;1.81;100.00;100588.00;6258659;22;20018;-86
2022/01/08 00:09:37;;;;;;;26.52;14.52;;;;;;;1.67;100.00;100591.56;6258079;22;20019;-85
2022/01/08 00:12:04;;;;;;;24.27;13.90;;;;;;;1.84;100.00;100580.81;6284088;22;20008;-88
2022/01/08 00:14:33;;;;;;;28.85;15.13;;;;;;;1.76;100.00;100570.03;6283874;22;20066;-86
2022/01/08 00:17:01;;;;;;;25.35;14.45;;;;;;;1.57;100.00;100585.28;6286337;22;19999;-87
2022/01/08 00:19:36;;;;;;;26.25;14.77;;;;;;;1.48;100.00;100580.69;6273060;22;20022;-84
2022/01/08 00:22:02;;;;;;;24.88;13.48;;;;;;;1.62;100.00;100582.38;6276173;22;20023;-85
2022/01/08 00:24:30;;;;;;;22.05;12.07;;;;;;;1.60;100.00;100579.00;6299149;22;20042;-85
2022/01/08 00:26:56;;;;;;;23.00;12.13;;;;;;;1.43;100.00;100583.59;6298589;22;20035;-86
2022/01/08 00:29:22;;;;;;;19.40;11.38;;;;;;;1.33;100.00;100581.69;6245719;22;20032;-85
2022/01/08 00:32:10;;;;;;;21.20;10.75;;;;;;;1.60;100.00;100576.41;6265039;22;20038;-86
2022/01/08 00:34:39;;;;;;;17.48;10.02;;;;;;;1.38;100.00;100574.41;6263948;22;20042;-87
2022/01/08 00:37:08;;;;;;;19.45;10.80;;;;;;;1.17;100.00;100571.44;6238147;22;20033;-87
2022/01/08 00:39:40;;;;;;;19.40;10.52;;;;;;;1.39;100.00;100571.69;6290000;22;20007;-86
2022/01/08 00:42:26;;;;;;;19.90;10.55;;;;;;;1.41;100.00;100579.44;6261963;22;20008;-85
2022/01/08 00:44:52;;;;;;;19.50;8.77;;;;;;;1.03;100.00;100568.91;6280723;22;20019;-86
2022/01/08 00:47:17;;;;;;;18.45;9.75;;;;;;;1.01;100.00;100576.84;6293474;22;20058;-84
2022/01/08 00:49:43;;;;;;;18.05;9.52;;;;;;;1.04;100.00;100586.22;6286401;22;20446;-85
2022/01/08 00:52:08;;;;;;;15.80;9.52;;;;;;;0.91;100.00;100583.59;6286650;22;20043;-84
2022/01/08 00:54:38;;;;;;;16.27;9.10;;;;;;;0.94;100.00;100579.94;6286565;22;20018;-86
2022/01/08 00:57:17;;;;;;;15.02;8.98;;;;;;;1.01;100.00;100578.59;6258552;22;20014;-85
2022/01/08 01:00:05;;;;;;;17.70;9.32;;;;;;;1.33;100.00;100581.69;6288237;22;20003;-86
2022/01/08 01:02:43;;;;;;;16.50;9.15;;;;;;;1.32;100.00;100580.88;6257516;22;20023;-86
2022/01/08 01:05:13;;;;;;;23.45;8.93;;;;;;;1.40;100.00;100573.38;6268957;22;20089;-87
2022/01/08 01:07:39;;;;;;;16.15;9.38;;;;;;;1.60;100.00;100574.63;6260942;22;20395;-87
2022/01/08 01:10:18;;;;;;;16.42;8.95;;;;;;;1.64;100.00;100568.25;6285478;22;20008;-87
2022/01/08 01:12:43;;;;;;;15.93;9.68;;;;;;;1.70;100.00;100559.16;6258883;22;20028;-86
2022/01/08 01:15:14;;;;;;;15.68;8.70;;;;;;;1.74;100.00;100565.84;6287284;22;20018;-85
2022/01/08 01:17:44;;;;;;;15.63;9.00;;;;;;;1.84;100.00;100552.06;6269410;22;20003;-86
2022/01/08 01:20:14;;;;;;;15.57;8.05;;;;;;;1.98;100.00;100551.09;6299934;22;20101;-86
2022/01/08 01:22:51;;;;;;;16.40;9.05;;;;;;;1.87;100.00;100556.22;6303385;22;20000;-84
2022/01/08 01:25:38;;;;;;;16.92;9.20;;;;;;;1.84;100.00;100548.59;6304293;22;20075;-85
2022/01/08 01:28:34;;;;;;;21.40;10.70;;;;;;;1.67;100.00;100548.94;6227165;23;20052;-86
2022/01/08 01:58:34;;;;;;;22.13;10.57;;;;;;;1.21;100.00;100505.06;6262940;22;20023;-87
2022/01/08 02:01:33;;;;;;;25.38;10.90;;;;;;;0.97;100.00;100511.91;6279440;22;20261;-85
2022/01/08 02:06:37;;;;;;;21.70;9.90;;;;;;;1.03;100.00;100506.28;6237632;22;20012;-87
2022/01/08 02:20:41;;;;;;;17.25;8.45;;;;;;;0.74;100.00;100473.44;6272832;22;20243;-85
2022/01/08 02:26:23;;;;;;;16.53;8.90;;;;;;;0.49;100.00;100469.00;6230834;22;20024;-83
2022/01/08 02:48:23;;;;;;;18.65;9.23;;;;;;;0.65;100.00;100453.19;6239408;22;20024;-86
2022/01/08 02:50:53;;;;;;;17.98;9.52;;;;;;;0.61;100.00;100454.31;6243598;22;19996;-85
2022/01/08 02:53:28;;;;;;;20.08;10.00;;;;;;;0.50;100.00;100458.47;6211727;23;20020;-87
2022/01/08 02:56:05;;;;;;;18.20;9.93;;;;;;;0.57;100.00;100456.28;6242566;22;20024;-87
2022/01/08 03:07:20;;;;;;;20.27;9.43;;;;;;;0.42;100.00;100442.50;6212027;22;20012;-86
2022/01/08 03:13:12;;;;;;;16.98;8.80;;;;;;;0.68;100.00;100437.34;6239332;23;20021;-86
2022/01/08 03:16:45;;;;;;;11.80;7.00;;;;;;;0.22;100.00;100435.13;6089121;23;20007;-87
2022/01/08 03:19:41;;;;;;;14.25;7.82;;;;;;;0.34;100.00;100431.72;6064830;23;20015;-87
2022/01/08 03:39:37;;;;;;;9.57;5.43;;;;;;;0.35;100.00;100409.13;6243530;22;20004;-86
2022/01/08 03:45:16;;;;;;;12.13;6.88;;;;;;;0.63;100.00;100427.22;6213719;23;20064;-87
2022/01/08 03:51:16;;;;;;;13.00;7.38;;;;;;;0.24;100.00;100435.88;6207159;23;20001;-87
2022/01/08 03:54:24;;;;;;;15.07;7.50;;;;;;;0.31;100.00;100431.94;6208425;23;20059;-86
2022/01/08 03:56:54;;;;;;;13.93;7.20;;;;;;;0.50;100.00;100429.78;6176741;23;19997;-86
2022/01/08 04:02:37;;;;;;;19.80;7.40;;;;;;;0.55;100.00;100426.06;6294640;22;20026;-86
2022/01/08 04:05:35;;;;;;;12.88;7.07;;;;;;;0.42;100.00;100429.47;6269100;22;20022;-87
2022/01/08 04:08:33;;;;;;;16.13;8.10;;;;;;;0.25;100.00;100419.31;6205141;22;20016;-86
2022/01/08 04:23:10;;;;;;;11.02;5.97;;;;;;;0.24;100.00;100435.88;6277867;22;20023;-87
2022/01/08 04:25:54;;;;;;;12.75;7.25;;;;;;;0.17;100.00;100439.78;6274970;22;20019;-86
2022/01/08 04:29:10;;;;;;;12.43;6.50;;;;;;;0.35;100.00;100425.59;6300419;22;20092;-87
2022/01/08 04:32:10;;;;;;;;;;;;;;;0.21;100.00;100430.84;6298077;22;19999;-86
2022/01/08 04:37:39;;;;;;;12.30;6.88;;;;;;;0.17;100.00;100431.97;6238424;22;20027;-87
2022/01/08 04:40:20;;;;;;;13.82;7.22;;;;;;;0.11;100.00;100418.50;6210538;23;20020;-87
2022/01/08 04:48:54;;;;;;;13.60;7.75;;;;;;;-0.05;100.00;100400.44;6210096;23;20025;-88
2022/01/08 04:54:41;;;;;;;12.82;7.95;;;;;;;-0.32;100.00;100396.97;6230139;22;20030;-88
2022/01/08 05:26:54;;;;;;;33.22;15.13;;;;;;;-142.57;100.00;61215.63;6235376;22;20004;-87
2022/01/08 05:56:36;;;;;;;25.95;13.63;;;;;;;-142.57;100.00;61215.63;6242573;22;20249;-86
2022/01/08 06:55:45;;;;;;;14.10;6.85;;;;;;;-142.57;100.00;61215.63;6247764;22;20025;-83
2022/01/08 07:17:01;;;;;;;13.32;6.40;;;;;;;-142.57;100.00;61215.63;6194220;23;20032;-84
2022/01/08 07:19:28;;;;;;;14.77;7.07;;;;;;;-142.57;100.00;61215.63;6193781;23;20071;-84
2022/01/08 07:22:06;;;;;;;12.05;6.78;;;;;;;-142.57;100.00;61215.63;6196400;23;20016;-85
2022/01/08 07:24:32;;;;;;;16.95;7.72;;;;;;;-142.57;100.00;61215.63;6210427;23;19993;-86
2022/01/08 07:26:59;;;;;;;12.35;7.10;;;;;;;-142.57;100.00;61215.63;6252492;22;20019;-85
2022/01/08 07:34:54;;;;;;;16.37;7.17;;;;;;;-142.57;100.00;61215.63;6232818;22;20025;-84
2022/01/08 07:37:32;;;;;;;19.13;7.50;;;;;;;-142.57;100.00;61215.63;6161753;23;20646;-82
2022/01/08 07:40:07;;;;;;;15.57;7.70;;;;;;;-142.57;100.00;61215.63;6178099;23;20073;-82
2022/01/08 07:43:00;;;;;;;11.60;6.57;;;;;;;-142.57;100.00;61215.63;6121623;23;20018;-83
2022/01/08 07:48:15;;;;;;;23.13;7.60;;;;;;;-142.57;100.00;61215.63;6209309;23;20021;-84
2022/01/08 07:50:41;;;;;;;12.25;6.85;;;;;;;-142.57;100.00;61215.63;6204417;23;20059;-84
2022/01/08 07:53:32;;;;;;;13.43;8.05;;;;;;;-142.57;100.00;61215.63;6165575;23;20020;-82
2022/01/08 07:56:27;;;;;;;14.95;7.85;;;;;;;-142.57;100.00;61215.63;6146772;23;20114;-81
2022/01/08 07:59:34;;;;;;;15.38;9.15;;;;;;;-142.57;100.00;61215.63;6226798;22;20007;-83
2022/01/08 08:02:09;;;;;;;15.60;8.45;;;;;;;-142.57;100.00;61215.63;6274530;22;20023;-81
2022/01/08 08:04:45;;;;;;;14.05;8.13;;;;;;;-142.57;100.00;61215.63;6263440;22;20052;-79
2022/01/08 08:07:37;;;;;;;13.77;8.40;;;;;;;-142.57;100.00;61215.63;6301339;22;20040;-84
2022/01/08 08:10:29;;;;;;;16.95;8.13;;;;;;;-142.57;100.00;61215.63;6305461;22;20003;-82
2022/01/08 08:15:40;;;;;;;13.52;7.38;;;;;;;-142.57;100.00;61215.63;6257659;22;20000;-82
2022/01/08 08:18:20;;;;;;;12.52;7.10;;;;;;;-142.57;100.00;61215.63;6242709;22;20012;-83
2022/01/08 08:20:50;;;;;;;14.90;8.10;;;;;;;-142.57;100.00;61215.63;6264968;22;20008;-83
2022/01/08 08:23:15;;;;;;;14.23;8.25;;;;;;;-142.57;100.00;61215.63;6268558;22;20096;-82
2022/01/08 08:25:41;;;;;;;17.83;9.20;;;;;;;-142.57;100.00;61215.63;6215048;22;20015;-82
2022/01/08 08:30:45;;;;;;;22.58;9.70;;;;;;;-142.57;100.00;61215.63;6162917;23;20072;-85
2022/01/08 08:33:11;;;;;;;17.95;8.80;;;;;;;-142.57;100.00;61215.63;6167843;23;20051;-83
2022/01/08 08:35:39;;;;;;;12.60;7.70;;;;;;;-142.57;100.00;61215.63;6147543;23;20013;-86
2022/01/08 08:38:05;;;;;;;14.63;6.97;;;;;;;-142.57;100.00;61215.63;6151447;23;20024;-83
2022/01/08 08:40:32;;;;;;;11.98;5.50;;;;;;;-142.57;100.00;61215.63;6176607;23;20014;-83
2022/01/08 08:42:58;;;;;;;9.15;5.07;;;;;;;-142.57;100.00;61215.63;6114300;23;20032;-85
2022/01/08 08:45:27;;;;;;;8.07;4.50;;;;;;;-142.57;100.00;61215.63;6135228;23;20045;-83
2022/01/08 08:47:56;;;;;;;9.90;4.90;;;;;;;-142.57;100.00;61215.63;6160442;23;20024;-83
2022/01/08 08:50:25;;;;;;;8.18;4.68;;;;;;;-142.57;100.00;61215.63;6159828;23;20553;-82
2022/01/08 08:52:54;;;;;;;10.10;5.20;;;;;;;-142.57;100.00;61215.63;6164640;23;20326;-81
2022/01/08 08:55:45;;;;;;;8.98;5.63;;;;;;;-142.57;100.00;61215.63;6143203;23;20029;-84
2022/01/08 08:58:11;;;;;;;12.15;6.97;;;;;;;-142.57;100.00;61215.63;6164725;23;20049;-83
2022/01/08 09:00:37;;;;;;;15.65;8.05;;;;;;;-142.57;100.00;61215.63;6162506;23;20017;-84
2022/01/08 09:03:03;;;;;;;18.38;10.57;;;;;;;-142.57;100.00;61215.63;6163800;23;20005;-84
2022/01/08 09:05:29;;;;;;;25.08;14.23;;;;;;;-142.57;100.00;61215.63;6139473;23;20410;-84
2022/01/08 09:07:54;;;;;;;28.23;14.73;;;;;;;-142.57;100.00;61215.63;6138990;23;20021;-85
2022/01/08 09:10:25;;;;;;;29.42;15.60;;;;;;;-142.57;100.00;61215.63;6167265;23;20010;-84
2022/01/08 09:12:54;;;;;;;36.60;20.00;;;;;;;-142.57;100.00;61215.63;6142510;23;20100;-84
2022/01/08 09:15:23;;;;;;;40.47;20.60;;;;;;;-142.57;100.00;61215.63;6168525;23;20013;-83
2022/01/08 09:17:50;;;;;;;39.30;22.10;;;;;;;-142.57;100.00;61215.63;6139740;23;20088;-85
2022/01/08 09:20:16;;;;;;;44.70;23.67;;;;;;;-142.57;100.00;61215.63;6165172;23;20010;-83
2022/01/08 09:22:42;;;;;;;45.00;25.20;;;;;;;-142.57;100.00;61215.63;6168086;23;20013;-83
2022/01/08 09:25:08;;;;;;;42.83;24.60;;;;;;;-142.57;100.00;61215.63;6170086;23;20341;-85
2022/01/08 09:27:36;;;;;;;48.45;26.08;;;;;;;-142.57;100.00;61215.63;6170018;23;20069;-84
2022/01/08 09:30:06;;;;;;;48.97;25.83;;;;;;;-142.57;100.00;61215.63;6173521;23;20013;-83
2022/01/08 09:32:33;;;;;;;46.33;24.83;;;;;;;-142.57;100.00;61215.63;6170238;23;20377;-85
2022/01/08 09:34:58;;;;;;;44.35;24.73;;;;;;;-142.57;100.00;61215.63;6167992;23;20008;-85
2022/01/08 09:37:46;;;;;;;41.90;24.13;;;;;;;-142.57;100.00;61215.63;6172131;23;20010;-83
2022/01/08 09:40:17;;;;;;;48.33;24.73;;;;;;;-142.57;100.00;61215.63;6152039;23;20024;-84
2022/01/08 09:42:47;;;;;;;40.22;23.80;;;;;;;-142.57;100.00;61215.63;6171754;23;20033;-84
2022/01/08 09:45:13;;;;;;;40.08;23.02;;;;;;;-142.57;100.00;61215.63;6174461;23;20065;-84
2022/01/08 09:47:39;;;;;;;41.50;22.77;;;;;;;-142.57;100.00;61215.63;6170590;23;20429;-85
2022/01/08 09:50:06;;;;;;;47.92;22.65;;;;;;;-142.57;100.00;61215.63;6163967;23;20016;-85
2022/01/08 09:52:33;;;;;;;40.05;21.83;;;;;;;-142.57;100.00;61215.63;6166935;23;20021;-84
2022/01/08 09:54:58;;;;;;;42.05;22.67;;;;;;;-142.57;100.00;61215.63;6139063;23;20013;-85
2022/01/08 09:57:25;;;;;;;43.35;22.38;;;;;;;-142.57;100.00;61215.63;6166397;23;20087;-83
2022/01/08 09:59:51;;;;;;;45.08;23.20;;;;;;;-142.57;100.00;61215.63;6184262;23;19993;-86
2022/01/08 10:02:23;;;;;;;43.47;22.30;;;;;;;-142.57;100.00;61215.63;6221139;22;20020;-82
2022/01/08 10:05:08;;;;;;;41.22;23.35;;;;;;;-142.57;100.00;61215.63;6254020;22;20007;-82
2022/01/08 10:07:40;;;;;;;40.72;24.08;;;;;;;-142.57;100.00;61215.63;6305073;22;20018;-84
2022/01/08 10:10:17;;;;;;;42.72;24.25;;;;;;;-142.57;100.00;61215.63;6270809;22;20011;-84
2022/01/08 10:12:56;;;;;;;39.83;23.90;;;;;;;-142.57;100.00;61215.63;6255767;22;20500;-82
2022/01/08 10:18:36;;;;;;;45.75;25.73;;;;;;;-142.57;100.00;61215.63;6255244;22;20431;-84
2022/01/08 10:21:30;;;;;;;40.53;24.27;;;;;;;-142.57;100.00;61215.63;6282630;22;20039;-84
2022/01/08 10:24:08;;;;;;;48.55;24.02;;;;;;;-142.57;100.00;61215.63;6159726;23;20013;-84
2022/01/08 10:26:38;;;;;;;42.63;24.45;;;;;;;-142.57;100.00;61215.63;6158230;23;20096;-83
2022/01/08 10:29:23;;;;;;;39.03;22.65;;;;;;;-142.57;100.00;61215.63;6162388;23;20334;-83
2022/01/08 10:32:12;;;;;;;42.13;22.48;;;;;;;-142.57;100.00;61215.63;6165130;23;20014;-84
2022/01/08 10:35:00;;;;;;;38.15;22.98;;;;;;;-142.57;100.00;61215.63;6185699;22;20027;-84
2022/01/08 10:37:29;;;;;;;40.38;22.35;;;;;;;-142.57;100.00;61215.63;6286527;22;20016;-84
2022/01/08 10:39:55;;;;;;;35.25;21.45;;;;;;;-142.57;100.00;61215.63;6285054;22;20039;-83
2022/01/08 10:42:24;;;;;;;34.05;20.25;;;;;;;-142.57;100.00;61215.63;6291333;22;20007;-83
2022/01/08 10:44:52;;;;;;;37.83;20.95;;;;;;;-142.57;100.00;61215.63;6260870;22;20016;-86
2022/01/08 10:47:39;;;;;;;34.75;21.30;;;;;;;-142.57;100.00;61215.63;6287798;22;20092;-83
2022/01/08 10:50:06;;;;;;;37.90;19.98;;;;;;;-142.57;100.00;61215.63;6240201;22;20008;-86
2022/01/08 10:52:48;;;;;;;35.33;20.17;;;;;;;-142.57;100.00;61215.63;6290841;22;20000;-83
2022/01/08 10:55:34;;;;;;;35.95;20.13;;;;;;;-142.57;100.00;61215.63;6291482;22;20022;-84
2022/01/08 10:58:00;;;;;;;36.42;19.17;;;;;;;-142.57;100.00;61215.63;6292497;22;20026;-83
2022/01/08 11:00:37;;;;;;;36.65;21.25;;;;;;;-142.57;100.00;61215.63;6290180;22;19992;-84
2022/01/08 11:03:52;;;;;;;35.97;22.10;;;;;;;-142.57;100.00;61215.63;6285525;22;20012;-83
2022/01/08 11:06:19;;;;;;;36.03;21.63;;;;;;;-142.57;100.00;61215.63;6295500;22;20015;-83
2022/01/08 11:09:30;;;;;;;41.08;23.25;;;;;;;-142.57;100.00;61215.63;6295370;22;20141;-83
2022/01/08 11:11:59;;;;;;;39.38;22.27;;;;;;;-142.57;100.00;61215.63;6196375;23;20016;-82
2022/01/08 11:15:35;;;;;;;41.03;22.00;;;;;;;-142.57;100.00;61215.63;6201510;23;20017;-83
2022/01/08 11:17:33;;;;;;;42.65;21.80;;;;;;;-142.57;100.00;61215.63;6181321;23;20052;-82
2022/01/08 11:20:09;;;;;;;37.97;21.38;;;;;;;-142.57;100.00;61215.63;6191389;23;20060;-85
2022/01/08 11:22:38;;;;;;;36.35;23.70;;;;;;;-142.57;100.00;61215.63;6187013;23;20017;-82
2022/01/08 11:25:11;;;;;;;41.13;23.08;;;;;;;-142.57;100.00;61215.63;6165501;23;20013;-81
2022/01/08 11:28:09;;;;;;;39.25;22.42;;;;;;;-142.57;100.00;61215.63;6165919;23;20017;-81
2022/01/08 11:30:47;;;;;;;37.92;22.08;;;;;;;-142.57;100.00;61215.63;6183105;23;20033;-84
2022/01/08 11:33:19;;;;;;;35.40;21.48;;;;;;;-142.57;100.00;61215.63;6192765;23;20089;-82
2022/01/08 11:35:47;;;;;;;36.22;20.80;;;;;;;-142.57;100.00;61215.63;6190728;23;20084;-82
2022/01/08 11:38:16;;;;;;;35.78;22.13;;;;;;;-142.57;100.00;61215.63;6187978;23;20027;-84
2022/01/08 11:40:47;;;;;;;33.63;21.40;;;;;;;-142.57;100.00;61215.63;6191004;23;20084;-81
2022/01/08 11:43:28;;;;;;;40.00;22.10;;;;;;;-142.57;100.00;61215.63;6193275;23;20008;-82
2022/01/08 11:46:08;;;;;;;39.25;22.40;;;;;;;-142.57;100.00;61215.63;6191406;23;20059;-82
2022/01/08 11:48:53;;;;;;;34.40;21.15;;;;;;;-142.57;100.00;61215.63;6223698;22;20067;-81
2022/01/08 11:51:35;;;;;;;35.17;21.23;;;;;;;-142.57;100.00;61215.63;6277688;22;20400;-80
2022/01/08 11:54:03;;;;;;;35.70;21.55;;;;;;;-142.57;100.00;61215.63;6288533;22;20012;-83
2022/01/08 11:56:38;;;;;;;33.50;21.98;;;;;;;-142.57;100.00;61215.63;6297774;22;20008;-83
2022/01/08 11:59:38;;;;;;;36.25;22.30;;;;;;;-142.57;100.00;61215.63;6256887;22;20059;-83
2022/01/08 12:02:23;;;;;;;40.40;23.58;;;;;;;-142.57;100.00;61215.63;6296269;22;20014;-84
2022/01/08 12:04:57;;;;;;;39.35;22.83;;;;;;;-142.57;100.00;61215.63;6265301;22;20025;-86
2022/01/08 12:07:34;;;;;;;;;;;;;;;-142.57;100.00;61215.63;6293623;22;20114;-84
2022/01/08 12:10:28;;;;;;;36.88;22.45;;;;;;;-142.57;100.00;61215.63;6266363;22;19934;-84
2022/01/08 12:13:02;;;;;;;34.90;23.30;;;;;;;-142.57;100.00;61215.63;6261868;22;20312;-87
2022/01/08 12:15:40;;;;;;;45.42;24.60;;;;;;;-142.57;100.00;61215.63;6265845;22;20015;-89
2022/01/08 12:18:51;;;;;;;42.60;25.95;;;;;;;-142.57;100.00;61215.63;6291034;22;20014;-89
2022/01/08 12:21:38;;;;;;;40.05;25.60;;;;;;;-142.57;100.00;61215.63;6215246;22;20016;-89
2022/01/08 12:24:37;;;;;;;42.25;26.90;;;;;;;-142.57;100.00;61215.63;6266046;22;20039;-87
2022/01/08 12:27:45;;;;;;;50.42;28.27;;;;;;;-142.57;100.00;61215.63;6203250;22;20028;-88
2022/01/08 12:30:16;;;;;;;56.75;30.30;;;;;;;-142.57;100.00;61215.63;6170629;23;20344;-88
2022/01/08 12:32:47;;;;;;;70.15;31.63;;;;;;;-142.57;100.00;61215.63;6220969;23;20385;-85
2022/01/08 12:35:16;;;;;;;51.00;29.50;;;;;;;-142.57;100.00;61215.63;6220616;23;20076;-86
2022/01/08 12:37:43;;;;;;;50.03;30.35;;;;;;;-142.57;100.00;61215.63;6221119;23;20040;-86
2022/01/08 12:40:12;;;;;;;54.92;31.70;;;;;;;-142.57;100.00;61215.63;6220095;23;20001;-87
2022/01/08 12:42:43;;;;;;;60.80;33.05;;;;;;;-142.57;100.00;61215.63;6193448;23;20039;-85
2022/01/08 12:45:13;;;;;;;53.83;33.40;;;;;;;-142.57;100.00;61215.63;6220859;23;20432;-83
2022/01/08 12:47:46;;;;;;;58.63;34.28;;;;;;;-142.57;100.00;61215.63;6223759;23;20008;-84
2022/01/08 12:50:38;;;;;;;63.42;37.30;;;;;;;-142.57;100.00;61215.63;6220932;23;20030;-88
2022/01/08 12:53:11;;;;;;;67.33;37.53;;;;;;;-142.57;100.00;61215.63;6221881;23;20072;-89
2022/01/08 12:55:49;;;;;;;63.55;36.47;;;;;;;-142.57;100.00;61215.63;6202482;23;20315;-91
2022/01/08 12:58:31;;;;;;;59.13;35.08;;;;;;;-142.57;100.00;61215.63;6226260;23;20004;-89
2022/01/08 13:01:15;;;;;;;61.30;34.00;;;;;;;-142.57;100.00;61215.63;6170934;23;20017;-88
2022/01/08 13:03:46;;;;;;;60.22;33.75;;;;;;;-142.57;100.00;61215.63;6221543;23;20012;-89
2022/01/08 13:06:12;;;;;;;55.90;35.00;;;;;;;-142.57;100.00;61215.63;6167683;23;20014;-88
2022/01/08 13:08:39;;;;;;;60.13;34.50;;;;;;;-142.57;100.00;61215.63;6221181;23;20009;-90
2022/01/08 13:11:10;;;;;;;64.95;37.42;;;;;;;-142.57;100.00;61215.63;6223505;23;20376;-91
2022/01/08 13:13:55;;;;;;;61.28;36.20;;;;;;;-142.57;100.00;61215.63;6222258;23;20356;-89
2022/01/08 13:16:28;;;;;;;63.65;37.45;;;;;;;-142.57;100.00;61215.63;6195856;23;20040;-91
2022/01/08 13:19:09;;;;;;;60.20;35.40;;;;;;;-142.57;100.00;61215.63;6203858;23;20502;-89
2022/01/08 13:21:36;;;;;;;65.32;37.40;;;;;;;-142.57;100.00;61215.63;6239906;23;20089;-89
2022/01/08 13:24:12;;;;;;;60.25;37.30;;;;;;;-142.57;100.00;61215.63;6224084;23;21003;-86
2022/01/08 13:26:41;;;;;;;66.88;38.25;;;;;;;-142.57;100.00;61215.63;6216596;23;20021;-88
2022/01/08 13:29:19;;;;;;;68.60;40.00;;;;;;;-142.57;100.00;61215.63;6217836;23;20008;-88
2022/01/08 13:31:50;;;;;;;65.70;39.47;;;;;;;-142.57;100.00;61215.63;6216317;23;20016;-90
2022/01/08 13:34:17;;;;;;;50.95;29.90;;;;;;;-142.57;100.00;61215.63;6191347;23;20440;-86
2022/01/08 13:37:05;;;;;;;68.55;40.60;;;;;;;-142.57;100.00;61215.63;6224450;23;20012;-87
2022/01/08 13:39:43;;;;;;;71.30;42.17;;;;;;;-142.57;100.00;61215.63;6192082;23;20012;-88
2022/01/08 13:42:19;;;;;;;65.95;38.50;;;;;;;-142.57;100.00;61215.63;6222653;23;20017;-91
2022/01/08 13:44:50;;;;;;;71.60;40.80;;;;;;;-142.57;100.00;61215.63;6197845;23;20321;-85
2022/01/08 13:47:34;;;;;;;70.55;39.85;;;;;;;-142.57;100.00;61215.63;6191487;23;20012;-89
2022/01/08 13:50:09;;;;;;;66.72;38.78;;;;;;;-142.57;100.00;61215.63;6168773;23;20017;-88
2022/01/08 13:52:39;;;;;;;65.18;37.03;;;;;;;-142.57;100.00;61215.63;6216697;23;20017;-88
2022/01/08 13:55:21;;;;;;;61.17;35.22;;;;;;;-142.57;100.00;61215.63;6217244;23;20013;-92
2022/01/08 13:57:53;;;;;;;59.35;34.63;;;;;;;-142.57;100.00;61215.63;6168816;23;20009;-90
2022/01/08 14:00:27;;;;;;;61.20;35.08;;;;;;;-142.57;100.00;61215.63;6190807;23;20366;-87
2022/01/08 14:02:55;;;;;;;59.92;36.50;;;;;;;-142.57;100.00;61215.63;6190953;23;20010;-89
2022/01/08 14:05:21;;;;;;;64.32;36.70;;;;;;;-142.57;100.00;61215.63;6219924;23;20015;-92
2022/01/08 14:07:47;;;;;;;67.13;37.25;;;;;;;-142.57;100.00;61215.63;6169008;23;20085;-89
2022/01/08 14:10:15;;;;;;;63.85;37.15;;;;;;;-142.57;100.00;61215.63;6195773;23;20008;-90
2022/01/08 14:13:00;;;;;;;61.58;35.53;;;;;;;-142.57;100.00;61215.63;6194424;23;20013;-89
2022/01/08 14:15:26;;;;;;;62.88;36.03;;;;;;;-142.57;100.00;61215.63;6218738;23;20043;-89
2022/01/08 14:17:52;;;;;;;62.70;37.63;;;;;;;-142.57;100.00;61215.63;6190653;23;20458;-89
2022/01/08 14:20:23;;;;;;;67.05;39.42;;;;;;;-142.57;100.00;61215.63;6218045;23;20091;-89
2022/01/08 14:22:51;;;;;;;65.93;38.83;;;;;;;-142.57;100.00;61215.63;6166383;23;20015;-89
2022/01/08 14:25:18;;;;;;;59.92;37.22;;;;;;;-142.57;100.00;61215.63;6195047;23;20028;-87
2022/01/08 14:27:44;;;;;;;64.82;38.65;;;;;;;-142.57;100.00;61215.63;6219389;23;20012;-90
2022/01/08 14:30:13;;;;;;;64.57;39.58;;;;;;;-142.57;100.00;61215.63;6191747;23;20386;-87
2022/01/08 14:32:41;;;;;;;89.40;40.58;;;;;;;-142.57;100.00;61215.63;6216479;23;20012;-91
2022/01/08 14:35:09;;;;;;;65.15;39.50;;;;;;;-142.57;100.00;61215.63;6217246;23;20009;-87
2022/01/08 14:37:45;;;;;;;68.47;41.03;;;;;;;-142.57;100.00;61215.63;6166541;23;20080;-86
2022/01/08 14:40:21;;;;;;;64.88;39.05;;;;;;;-142.57;100.00;61215.63;6192953;23;20337;-89
2022/01/08 14:43:05;;;;;;;73.18;40.85;;;;;;;-142.57;100.00;61215.63;6239138;22;20062;-85
2022/01/08 14:45:37;;;;;;;68.55;41.72;;;;;;;-142.57;100.00;61215.63;6240988;22;20016;-88
2022/01/08 14:48:15;;;;;;;65.57;39.90;;;;;;;-142.57;100.00;61215.63;6233406;23;20015;-88
2022/01/08 14:50:40;;;;;;;61.90;37.55;;;;;;;-142.57;100.00;61215.63;6191932;23;20020;-88
2022/01/08 14:53:06;;;;;;;64.97;38.55;;;;;;;-142.57;100.00;61215.63;6223709;23;20048;-88
2022/01/08 14:55:34;;;;;;;65.65;41.03;;;;;;;-142.57;100.00;61215.63;6217010;23;20023;-87
2022/01/08 14:58:01;;;;;;;68.20;41.35;;;;;;;-142.57;100.00;61215.63;6217138;23;20008;-89
2022/01/08 15:00:28;;;;;;;64.53;40.65;;;;;;;-142.57;100.00;61215.63;6141905;23;20020;-87
2022/01/08 15:02:54;;;;;;;75.60;42.85;;;;;;;-142.57;100.00;61215.63;6217436;23;20344;-88
2022/01/08 15:05:20;;;;;;;71.28;42.83;;;;;;;-142.57;100.00;61215.63;6215751;23;20078;-88
2022/01/08 15:07:46;;;;;;;71.18;43.42;;;;;;;-142.57;100.00;61215.63;6217338;23;20313;-88
2022/01/08 15:10:18;;;;;;;72.70;44.10;;;;;;;-142.57;100.00;61215.63;6217225;23;20091;-91
2022/01/08 15:12:46;;;;;;;72.93;42.72;;;;;;;-142.57;100.00;61215.63;6219572;23;20092;-85
2022/01/08 15:15:29;;;;;;;75.47;45.00;;;;;;;-142.57;100.00;61215.63;6222049;23;20013;-93
2022/01/08 15:17:55;;;;;;;76.00;45.83;;;;;;;-142.57;100.00;61215.63;6192907;23;20013;-88
2022/01/08 15:20:20;;;;;;;79.03;47.03;;;;;;;-142.57;100.00;61215.63;6190839;23;20028;-87
2022/01/08 15:22:46;;;;;;;79.05;46.97;;;;;;;-142.57;100.00;61215.63;6214607;23;20001;-86
2022/01/08 15:25:11;;;;;;;86.10;49.85;;;;;;;-142.57;100.00;61215.63;6216706;23;20123;-89
2022/01/08 15:27:37;;;;;;;84.70;50.58;;;;;;;-142.57;100.00;61215.63;6218340;23;20317;-89
2022/01/08 15:30:03;;;;;;;91.85;53.38;;;;;;;-142.57;100.00;61215.63;6211969;23;20004;-87
2022/01/08 15:32:31;;;;;;;95.47;53.90;;;;;;;-142.57;100.00;61215.63;6219363;23;20377;-90
2022/01/08 15:35:01;;;;;;;97.32;53.90;;;;;;;-142.57;100.00;61215.63;6218555;23;20008;-88
2022/01/08 15:37:26;;;;;;;99.47;55.47;;;;;;;-142.57;100.00;61215.63;6192737;23;20012;-89
2022/01/08 15:39:52;;;;;;;108.65;55.10;;;;;;;-142.57;100.00;61215.63;6215790;23;20054;-88
2022/01/08 15:42:17;;;;;;;122.35;55.85;;;;;;;-142.57;100.00;61215.63;6199392;23;20008;-89
2022/01/08 15:44:44;;;;;;;115.90;57.20;;;;;;;-142.57;100.00;61215.63;6202415;23;20043;-90
2022/01/08 15:47:13;;;;;;;138.15;58.28;;;;;;;-142.57;100.00;61215.63;6233209;23;20013;-88
2022/01/08 15:49:39;;;;;;;106.28;55.42;;;;;;;-142.57;100.00;61215.63;6230371;23;20008;-89
2022/01/08 15:52:04;;;;;;;122.80;52.67;;;;;;;-142.57;100.00;61215.63;6196762;23;20040;-90
2022/01/08 15:54:30;;;;;;;122.88;53.20;;;;;;;-142.57;100.00;61215.63;6168933;23;20001;-89
2022/01/08 15:56:55;;;;;;;179.73;56.42;;;;;;;-142.57;100.00;61215.63;6192452;23;20042;-90
2022/01/08 15:59:21;;;;;;;227.18;61.30;;;;;;;-142.57;100.00;61215.63;6167006;23;20039;-91
2022/01/08 16:01:47;;;;;;;353.77;61.42;;;;;;;-142.57;100.00;61215.63;6218383;23;20004;-89
2022/01/08 16:04:13;;;;;;;307.00;65.65;;;;;;;-142.57;100.00;61215.63;6187400;23;20009;-90
2022/01/08 16:06:39;;;;;;;298.08;67.18;;;;;;;-142.57;100.00;61215.63;6223181;23;20008;-89
2022/01/08 16:09:05;;;;;;;238.43;68.00;;;;;;;-142.57;100.00;61215.63;6213263;23;20009;-88